Time;durP1;ratioP1;P1;durP2;ratioP2;P2;SDS_P1;SDS_P2;PMS_P1;PMS_P2;Temp;Humidity;BMP_temperature;BMP_pressure;BME280_temperature;BME280_humidity;BME280_pressure;Samples;Min_cycle;Max_cycle;Signal;HPM_P1;HPM_P2
2022/06/26 00:02:46;;;;;;;3.97;3.10;;;21.90;98.00;;;;;;6225864;28;20243;-66
2022/06/26 00:05:50;;;;;;;3.23;3.03;;;21.90;98.20;;;;;;6202915;28;20681;-66
2022/06/26 00:08:53;;;;;;;3.40;3.10;;;21.90;98.60;;;;;;6225471;28;20529;-67
2022/06/26 00:11:57;;;;;;;3.30;2.80;;;21.80;98.40;;;;;;6203349;28;20230;-68
2022/06/26 00:15:01;;;;;;;4.10;3.67;;;21.70;98.60;;;;;;6214921;28;20209;-67
2022/06/26 00:18:04;;;;;;;4.13;3.30;;;21.70;98.80;;;;;;6204244;28;20360;-66
2022/06/26 00:21:07;;;;;;;3.77;2.53;;;21.60;98.80;;;;;;6226236;28;20229;-66
2022/06/26 00:24:11;;;;;;;3.00;2.70;;;21.60;99.00;;;;;;6223191;28;20239;-67
2022/06/26 00:27:15;;;;;;;2.90;2.60;;;21.60;99.10;;;;;;6206662;28;20251;-66
2022/06/26 00:30:19;;;;;;;3.50;3.20;;;21.60;99.00;;;;;;6221023;28;20234;-66
2022/06/26 00:33:22;;;;;;;2.50;2.30;;;21.60;99.10;;;;;;6206237;28;20243;-67
2022/06/26 00:36:25;;;;;;;2.43;2.27;;;21.60;99.10;;;;;;6225646;28;20367;-66
2022/06/26 00:39:28;;;;;;;2.50;2.30;;;21.50;99.10;;;;;;6219636;28;20569;-66
2022/06/26 00:42:33;;;;;;;4.10;2.40;;;21.40;99.20;;;;;;6208220;28;20263;-67
2022/06/26 00:45:36;;;;;;;2.80;2.60;;;21.40;99.40;;;;;;6227641;28;20244;-68
2022/06/26 00:48:39;;;;;;;3.50;2.80;;;21.40;99.50;;;;;;6218555;28;20238;-67
2022/06/26 00:51:46;;;;;;;2.93;2.33;;;21.30;99.40;;;;;;6208749;28;20225;-67
2022/06/26 00:54:50;;;;;;;2.93;2.73;;;21.20;99.70;;;;;;6216490;28;20245;-68
2022/06/26 00:57:55;;;;;;;3.53;2.50;;;21.20;99.90;;;;;;6212235;28;20233;-68
2022/06/26 01:00:58;;;;;;;2.77;2.57;;;21.10;99.90;;;;;;6219784;28;20230;-68
2022/06/26 01:04:01;;;;;;;3.80;3.40;;;21.10;99.90;;;;;;6216283;28;20251;-69
2022/06/26 01:07:05;;;;;;;4.33;2.50;;;21.00;99.90;;;;;;6218862;28;20229;-68
2022/06/26 01:10:10;;;;;;;2.50;2.30;;;21.00;99.90;;;;;;6219151;28;20225;-68
2022/06/26 01:13:14;;;;;;;2.30;2.10;;;21.00;99.90;;;;;;6222195;28;20587;-68
2022/06/26 01:16:19;;;;;;;2.27;2.07;;;20.90;99.90;;;;;;6219222;28;20248;-70
2022/06/26 01:19:23;;;;;;;3.27;2.63;;;20.90;99.90;;;;;;6216347;28;20562;-70
2022/06/26 01:22:29;;;;;;;2.30;2.10;;;20.90;99.90;;;;;;6219052;28;20247;-69
2022/06/26 01:25:45;;;;;;;2.80;2.60;;;20.90;99.90;;;;;;6229725;28;20255;-70
2022/06/26 01:28:49;;;;;;;3.37;2.37;;;20.80;99.90;;;;;;6212930;28;20372;-67
2022/06/26 01:31:52;;;;;;;3.30;2.53;;;20.80;99.90;;;;;;6222354;28;20255;-66
2022/06/26 01:34:55;;;;;;;2.70;2.20;;;20.70;99.90;;;;;;6211288;28;20229;-69
2022/06/26 01:38:10;;;;;;;2.97;2.67;;;20.70;99.90;;;;;;6223624;28;20239;-69
2022/06/26 01:41:13;;;;;;;3.67;2.60;;;20.70;99.90;;;;;;6228954;28;20237;-66
2022/06/26 01:44:17;;;;;;;3.30;2.63;;;20.60;99.90;;;;;;6208257;28;20229;-68
2022/06/26 01:47:20;;;;;;;3.37;2.00;;;20.60;99.90;;;;;;6225824;28;20243;-67
2022/06/26 01:50:23;;;;;;;3.00;2.80;;;20.50;99.90;;;;;;6207103;28;20234;-67
2022/06/26 01:53:29;;;;;;;3.70;2.23;;;20.50;99.90;;;;;;6227039;28;20233;-67
2022/06/26 01:56:32;;;;;;;3.30;2.50;;;20.40;99.90;;;;;;6205916;28;20225;-67
2022/06/26 01:59:35;;;;;;;2.10;1.90;;;20.40;99.90;;;;;;6227774;28;20546;-68
2022/06/26 02:02:38;;;;;;;2.17;1.90;;;20.30;99.90;;;;;;6228903;28;20838;-68
2022/06/26 02:05:42;;;;;;;2.60;2.40;;;20.30;99.90;;;;;;6228397;28;20229;-68
2022/06/26 02:08:46;;;;;;;2.50;2.30;;;20.30;99.90;;;;;;6228313;28;20236;-68
2022/06/26 02:15:10;;;;;;;4.47;2.50;;;20.20;99.90;;;;;;6208169;28;20233;-70
2022/06/26 02:18:13;;;;;;;3.60;2.30;;;20.20;99.90;;;;;;6224239;28;20567;-70
2022/06/26 02:21:19;;;;;;;3.50;2.20;;;20.20;99.90;;;;;;6209037;28;20251;-67
2022/06/26 02:24:24;;;;;;;4.60;2.40;;;20.10;99.90;;;;;;6214439;28;20244;-67
2022/06/26 02:27:27;;;;;;;4.17;2.70;;;20.10;99.90;;;;;;6209760;28;20261;-68
2022/06/26 02:30:30;;;;;;;3.20;2.00;;;20.10;99.90;;;;;;6221558;28;20685;-68
2022/06/26 02:33:35;;;;;;;2.50;2.30;;;20.00;99.90;;;;;;6210320;28;20233;-68
2022/06/26 02:36:38;;;;;;;3.80;2.27;;;20.00;99.90;;;;;;6220837;28;20709;-68
2022/06/26 02:39:42;;;;;;;4.50;2.27;;;20.00;99.90;;;;;;6211504;28;20244;-68
2022/06/26 02:42:45;;;;;;;2.30;2.10;;;20.00;99.90;;;;;;6220825;28;20233;-68
2022/06/26 02:45:48;;;;;;;2.00;1.90;;;20.00;99.90;;;;;;6212218;28;20229;-68
2022/06/26 02:48:52;;;;;;;3.70;2.20;;;20.00;99.90;;;;;;6218865;28;20308;-66
2022/06/26 02:51:55;;;;;;;2.57;2.37;;;20.00;99.90;;;;;;6214608;28;20237;-66
2022/06/26 02:55:00;;;;;;;2.33;1.73;;;19.90;99.90;;;;;;6217909;28;20230;-66
2022/06/26 02:58:04;;;;;;;1.87;1.77;;;19.90;99.90;;;;;;6213950;28;20775;-66
2022/06/26 03:01:07;;;;;;;2.27;2.10;;;19.90;99.90;;;;;;6227137;28;20575;-66
2022/06/26 03:04:10;;;;;;;2.33;2.10;;;19.80;99.90;;;;;;6215656;28;20674;-66
2022/06/26 03:07:13;;;;;;;3.00;2.30;;;19.80;99.90;;;;;;6215194;28;20237;-65
2022/06/26 03:10:18;;;;;;;2.80;2.60;;;19.80;99.90;;;;;;6214649;28;20257;-66
2022/06/26 03:13:21;;;;;;;2.53;2.10;;;19.70;99.90;;;;;;6215795;28;20233;-66
2022/06/26 03:16:24;;;;;;;2.90;2.10;;;19.70;99.90;;;;;;6213670;28;20235;-66
2022/06/26 03:19:28;;;;;;;1.80;1.70;;;19.70;99.90;;;;;;6216242;28;20248;-66
2022/06/26 03:22:31;;;;;;;1.87;1.77;;;19.80;99.90;;;;;;6211900;28;20297;-66
2022/06/26 03:25:35;;;;;;;4.07;2.37;;;19.70;99.90;;;;;;6217403;28;20238;-66
2022/06/26 03:28:39;;;;;;;3.40;2.37;;;19.60;99.90;;;;;;6222206;28;20244;-68
2022/06/26 03:31:42;;;;;;;2.03;1.93;;;19.60;99.90;;;;;;6210648;28;20682;-68
2022/06/26 03:34:45;;;;;;;3.87;2.03;;;19.60;99.90;;;;;;6218517;28;20724;-69
2022/06/26 03:37:48;;;;;;;2.17;1.97;;;19.60;99.90;;;;;;6209698;28;20230;-69
2022/06/26 03:40:53;;;;;;;2.73;2.53;;;19.70;99.90;;;;;;6219339;28;20228;-67
2022/06/26 03:43:56;;;;;;;1.87;1.73;;;19.70;99.90;;;;;;6208376;28;20248;-67
2022/06/26 03:46:59;;;;;;;4.40;1.90;;;19.70;99.90;;;;;;6220700;28;20225;-67
2022/06/26 03:50:03;;;;;;;2.17;2.07;;;19.70;99.90;;;;;;6208037;28;20236;-67
2022/06/26 03:53:06;;;;;;;2.73;2.20;;;19.70;99.90;;;;;;6220700;28;20228;-66
2022/06/26 03:56:11;;;;;;;4.30;2.53;;;19.70;99.90;;;;;;6206541;28;20234;-65
2022/06/26 03:59:14;;;;;;;2.43;2.20;;;19.80;99.90;;;;;;6222712;28;20233;-65
2022/06/26 04:02:17;;;;;;;2.07;1.87;;;19.80;99.90;;;;;;6206304;28;20570;-66
2022/06/26 04:05:21;;;;;;;3.00;1.93;;;19.80;99.90;;;;;;6222694;28;20287;-65
2022/06/26 04:08:24;;;;;;;4.80;2.20;;;19.90;99.90;;;;;;6211953;28;20261;-65
2022/06/26 04:11:28;;;;;;;2.77;2.00;;;19.90;99.90;;;;;;6234712;28;20232;-65
2022/06/26 04:14:32;;;;;;;2.00;1.90;;;20.00;99.90;;;;;;6220646;28;20222;-66
2022/06/26 04:17:35;;;;;;;2.20;2.00;;;20.00;99.90;;;;;;6240677;28;20213;-66
2022/06/26 04:20:38;;;;;;;2.73;2.07;;;20.10;99.90;;;;;;6233530;28;20567;-66
2022/06/26 04:23:42;;;;;;;2.03;1.93;;;20.20;99.90;;;;;;6203299;28;20230;-66
2022/06/26 04:26:46;;;;;;;2.33;2.10;;;20.30;99.90;;;;;;6226453;28;20229;-66
2022/06/26 04:29:49;;;;;;;2.30;2.10;;;20.30;99.90;;;;;;6198002;28;20229;-66
2022/06/26 04:32:53;;;;;;;2.60;1.90;;;20.40;99.90;;;;;;6225501;28;20287;-65
2022/06/26 04:35:56;;;;;;;2.00;1.90;;;20.50;99.90;;;;;;6228144;28;20201;-65
2022/06/26 04:38:59;;;;;;;1.90;1.80;;;20.60;99.90;;;;;;6206176;28;20206;-65
2022/06/26 04:42:04;;;;;;;1.90;1.80;;;20.70;99.90;;;;;;6228132;28;20227;-65
2022/06/26 04:45:09;;;;;;;2.60;2.20;;;20.80;99.90;;;;;;6210806;28;20473;-66
2022/06/26 04:48:12;;;;;;;4.03;2.27;;;20.90;99.90;;;;;;6229616;28;20230;-66
2022/06/26 04:51:15;;;;;;;2.83;2.07;;;21.00;99.90;;;;;;6212854;28;20229;-66
2022/06/26 04:54:18;;;;;;;3.27;2.23;;;21.20;99.90;;;;;;6231045;28;20292;-66
2022/06/26 04:57:25;;;;;;;3.90;2.77;;;21.30;99.90;;;;;;6215191;28;20239;-66
2022/06/26 05:00:28;;;;;;;2.13;1.70;;;21.40;99.90;;;;;;6230708;28;20740;-66
2022/06/26 05:03:31;;;;;;;2.43;2.20;;;21.60;99.90;;;;;;6218463;28;20241;-66
2022/06/26 05:06:41;;;;;;;1.90;1.80;;;21.70;99.90;;;;;;6226235;28;20722;-66
2022/06/26 05:09:44;;;;;;;2.07;1.97;;;21.80;99.90;;;;;;6213048;28;20577;-65
2022/06/26 05:12:49;;;;;;;2.00;1.90;;;21.90;99.90;;;;;;6220930;28;20234;-66
2022/06/26 05:15:52;;;;;;;2.20;2.00;;;22.00;99.90;;;;;;6212074;28;20240;-67
2022/06/26 05:18:55;;;;;;;2.67;1.67;;;22.10;99.90;;;;;;6216235;28;20689;-66
2022/06/26 05:21:58;;;;;;;1.83;1.73;;;22.30;99.90;;;;;;6211194;28;20716;-66
2022/06/26 05:25:01;;;;;;;2.87;1.93;;;22.40;99.90;;;;;;6216692;28;20402;-66
2022/06/26 05:28:06;;;;;;;2.27;1.80;;;22.50;99.90;;;;;;6213341;28;20669;-66
2022/06/26 05:31:09;;;;;;;2.37;1.90;;;22.60;99.90;;;;;;6226146;28;20229;-66
2022/06/26 05:34:13;;;;;;;3.33;2.27;;;22.80;99.90;;;;;;6216500;28;20233;-66
2022/06/26 05:37:17;;;;;;;1.77;1.67;;;22.90;99.60;;;;;;6224754;28;20233;-66
2022/06/26 05:40:21;;;;;;;3.00;2.17;;;22.90;99.40;;;;;;6212016;28;20226;-66
2022/06/26 05:43:25;;;;;;;2.30;2.10;;;22.90;99.10;;;;;;6214203;28;20232;-66
2022/06/26 05:46:28;;;;;;;2.20;1.80;;;23.00;99.00;;;;;;6229008;28;20237;-66
2022/06/26 05:49:31;;;;;;;5.70;2.17;;;23.10;99.00;;;;;;6214463;28;20238;-66
2022/06/26 05:52:34;;;;;;;1.80;1.70;;;23.30;99.00;;;;;;6226262;28;20243;-68
2022/06/26 05:55:39;;;;;;;3.93;3.00;;;23.40;98.70;;;;;;6220452;28;20225;-68
2022/06/26 05:58:43;;;;;;;3.97;2.37;;;23.60;98.30;;;;;;6224722;28;20234;-69
2022/06/26 06:01:46;;;;;;;4.60;1.63;;;23.70;97.80;;;;;;6216644;28;20218;-68
2022/06/26 06:04:49;;;;;;;1.97;1.77;;;23.70;97.60;;;;;;6233158;28;20221;-70
2022/06/26 06:07:54;;;;;;;2.53;1.90;;;23.90;97.30;;;;;;6241417;28;20308;-70
2022/06/26 06:10:57;;;;;;;2.37;1.47;;;24.10;97.20;;;;;;6236972;28;20671;-70
2022/06/26 06:14:02;;;;;;;2.20;1.50;;;24.50;96.30;;;;;;6233461;28;20229;-70
2022/06/26 06:20:24;;;;;;;3.27;1.67;;;25.50;94.10;;;;;;6206459;28;20704;-69
2022/06/26 06:23:27;;;;;;;1.80;1.70;;;25.90;93.30;;;;;;6225808;28;20317;-69
2022/06/26 06:26:31;;;;;;;1.47;1.27;;;26.60;92.30;;;;;;6205878;28;20233;-70
2022/06/26 06:29:35;;;;;;;2.23;1.50;;;27.30;91.20;;;;;;6226465;28;20667;-70
2022/06/26 06:32:40;;;;;;;3.67;1.70;;;28.00;89.50;;;;;;6205903;28;20692;-70
2022/06/26 06:35:43;;;;;;;2.87;2.17;;;28.70;85.20;;;;;;6228125;28;20698;-69
2022/06/26 06:38:46;;;;;;;1.50;1.40;;;29.10;82.40;;;;;;6204048;28;20546;-69
2022/06/26 06:41:50;;;;;;;1.57;1.47;;;29.50;80.20;;;;;;6204145;28;20205;-68
2022/06/26 06:44:54;;;;;;;1.40;1.27;;;29.90;79.00;;;;;;6227133;28;20215;-69
2022/06/26 06:47:57;;;;;;;1.40;1.20;;;30.40;75.30;;;;;;6205793;28;20216;-68
2022/06/26 06:51:01;;;;;;;1.67;1.57;;;31.00;72.60;;;;;;6228443;28;20231;-68
2022/06/26 06:54:04;;;;;;;4.40;1.80;;;31.20;71.50;;;;;;6225429;28;20306;-69
2022/06/26 06:57:07;;;;;;;1.65;1.45;;;31.80;68.90;;;;;;6207049;28;20228;-66
2022/06/26 07:00:12;;;;;;;1.35;1.25;;;32.50;65.40;;;;;;6224145;28;20221;-68
2022/06/26 07:03:15;;;;;;;1.40;1.20;;;33.00;62.60;;;;;;6207256;28;20233;-69
2022/06/26 07:06:18;;;;;;;5.20;4.90;;;33.40;61.00;;;;;;6222988;28;20233;-69
2022/06/26 07:09:22;;;;;;;1.75;1.50;;;33.70;59.20;;;;;;6207393;28;20247;-69
2022/06/26 07:12:25;;;;;;;1.60;1.30;;;33.90;58.30;;;;;;6226946;28;20696;-68
2022/06/26 07:15:29;;;;;;;2.35;2.00;;;34.10;57.00;;;;;;6221043;28;20243;-69
2022/06/26 07:18:33;;;;;;;2.03;1.58;;;34.60;57.00;;;;;;6209627;28;20228;-69
2022/06/26 07:21:36;;;;;;;1.63;1.23;;;34.70;56.00;;;;;;6227462;28;20229;-69
2022/06/26 07:24:39;;;;;;;1.27;1.17;;;35.40;55.10;;;;;;6220055;28;20570;-69
2022/06/26 07:27:44;;;;;;;2.83;1.30;;;36.00;52.90;;;;;;6213551;28;20228;-69
2022/06/26 07:30:48;;;;;;;1.40;1.30;;;36.60;51.70;;;;;;6220343;28;20581;-69
2022/06/26 07:37:12;;;;;;;1.42;1.30;;;36.90;50.00;;;;;;6215316;28;20240;-69
2022/06/26 07:40:15;;;;;;;1.60;1.30;;;37.10;49.20;;;;;;6214164;28;20684;-69
2022/06/26 07:43:19;;;;;;;1.40;1.20;;;36.40;49.20;;;;;;6229900;28;20633;-69
2022/06/26 07:46:23;;;;;;;2.28;1.30;;;36.30;49.40;;;;;;6224762;28;20249;-69
2022/06/26 07:49:26;;;;;;;2.00;1.30;;;36.20;49.90;;;;;;6213691;28;20240;-69
2022/06/26 07:52:30;;;;;;;1.92;1.38;;;36.00;49.70;;;;;;6233826;28;20235;-69
2022/06/26 07:55:33;;;;;;;1.27;1.17;;;35.60;50.10;;;;;;6236300;28;20232;-69
2022/06/26 07:58:43;;;;;;;1.92;1.40;;;35.20;50.80;;;;;;6242526;28;20228;-69
2022/06/26 08:01:48;;;;;;;2.53;1.50;;;34.60;52.00;;;;;;6233902;28;20243;-67
2022/06/26 08:04:51;;;;;;;1.67;1.55;;;33.90;52.60;;;;;;6243386;28;20220;-67
2022/06/26 08:07:54;;;;;;;1.95;1.25;;;33.50;54.90;;;;;;6232566;28;20243;-67
2022/06/26 08:10:57;;;;;;;2.38;1.67;;;33.00;54.90;;;;;;6243667;28;20702;-67
2022/06/26 08:14:00;;;;;;;2.38;1.63;;;32.60;56.00;;;;;;6250638;28;20254;-67
2022/06/26 08:17:05;;;;;;;1.55;1.40;;;32.10;57.60;;;;;;6250744;28;20235;-67
2022/06/26 08:20:09;;;;;;;1.73;1.40;;;31.70;58.40;;;;;;6230765;28;20236;-67
2022/06/26 08:23:13;;;;;;;2.72;1.98;;;31.50;58.50;;;;;;6245912;28;20235;-66
2022/06/26 08:26:16;;;;;;;2.65;1.98;;;31.20;58.80;;;;;;6251381;28;20227;-67
2022/06/26 08:29:19;;;;;;;2.42;2.03;;;30.70;59.70;;;;;;6231047;28;20682;-67
2022/06/26 08:32:23;;;;;;;1.42;1.33;;;30.50;60.70;;;;;;6247829;28;20244;-67
2022/06/26 08:35:28;;;;;;;1.85;1.73;;;30.40;60.70;;;;;;6230225;28;20235;-67
2022/06/26 08:38:32;;;;;;;2.10;1.85;;;30.50;61.80;;;;;;6248293;28;20549;-67
2022/06/26 08:41:40;;;;;;;1.80;1.70;;;30.40;61.70;;;;;;6249892;28;20229;-67
2022/06/26 08:44:45;;;;;;;1.70;1.60;;;30.20;61.90;;;;;;6249870;28;20607;-66
2022/06/26 08:47:52;;;;;;;2.00;1.80;;;29.90;64.00;;;;;;6250177;28;20212;-67
2022/06/26 08:50:56;;;;;;;1.70;1.60;;;29.90;64.00;;;;;;6249740;28;20223;-67
2022/06/26 08:54:00;;;;;;;2.30;2.10;;;30.00;64.50;;;;;;6249562;28;20311;-67
2022/06/26 08:57:05;;;;;;;2.00;1.80;;;30.00;64.40;;;;;;6250130;28;20204;-67
2022/06/26 09:00:09;;;;;;;3.07;1.90;;;29.80;65.10;;;;;;6238776;28;20581;-67
2022/06/26 09:03:15;;;;;;;2.30;2.20;;;29.90;64.90;;;;;;6223981;28;20682;-67
2022/06/26 09:06:18;;;;;;;2.47;2.27;;;29.80;65.10;;;;;;6205215;28;20239;-66
2022/06/26 09:09:23;;;;;;;2.07;1.93;;;29.70;65.70;;;;;;6220582;28;20228;-66
2022/06/26 09:12:36;;;;;;;2.57;2.00;;;29.60;65.60;;;;;;6206177;28;20328;-66
2022/06/26 09:15:41;;;;;;;2.47;1.83;;;29.70;66.20;;;;;;6218590;28;20749;-68
2022/06/26 09:18:46;;;;;;;2.20;2.00;;;29.90;67.30;;;;;;6209779;28;20236;-69
2022/06/26 09:21:50;;;;;;;2.27;2.17;;;30.10;66.40;;;;;;6220925;28;20236;-68
2022/06/26 09:24:57;;;;;;;3.80;2.70;;;30.10;66.50;;;;;;6215258;28;20228;-69
2022/06/26 09:28:06;;;;;;;2.80;2.40;;;29.60;67.30;;;;;;6239993;28;20224;-69
2022/06/26 09:31:12;;;;;;;4.53;2.90;;;29.70;67.40;;;;;;6253942;28;20239;-69
2022/06/26 09:34:25;;;;;;;2.10;1.90;;;29.90;67.30;;;;;;6241409;28;20247;-69
2022/06/26 09:37:35;;;;;;;2.10;1.90;;;29.90;67.40;;;;;;6243159;28;20762;-68
2022/06/26 09:41:00;;;;;;;3.40;2.57;;;30.00;67.10;;;;;;6235253;28;20227;-68
2022/06/26 09:44:03;;;;;;;4.10;2.27;;;30.00;68.00;;;;;;6228915;28;20552;-68
2022/06/26 09:47:18;;;;;;;3.40;2.67;;;30.00;68.20;;;;;;6228885;28;20228;-66
2022/06/26 09:50:23;;;;;;;2.33;2.17;;;30.10;67.30;;;;;;6224356;28;20228;-69
2022/06/26 09:53:28;;;;;;;3.03;2.73;;;30.10;67.20;;;;;;6227620;28;20233;-69
2022/06/26 09:56:32;;;;;;;2.80;2.50;;;30.20;67.30;;;;;;6237915;28;20231;-69
2022/06/26 09:59:36;;;;;;;2.93;2.57;;;30.20;68.30;;;;;;6220212;28;20228;-69
2022/06/26 10:09:27;;;;;;;2.70;2.50;;;29.90;69.10;;;;;;6224952;28;20621;-66
2022/06/26 10:12:31;;;;;;;3.60;2.40;;;30.00;69.20;;;;;;6227722;28;20229;-69
2022/06/26 10:15:38;;;;;;;3.53;3.10;;;30.10;69.00;;;;;;6224241;28;20620;-69
2022/06/26 10:18:55;;;;;;;2.73;2.50;;;30.20;69.70;;;;;;6233273;28;20548;-68
2022/06/26 10:22:00;;;;;;;3.33;2.83;;;30.10;68.70;;;;;;6227324;28;20226;-68
2022/06/26 10:25:03;;;;;;;2.80;2.60;;;30.00;69.00;;;;;;6232510;28;20327;-68
2022/06/26 10:28:06;;;;;;;2.80;2.40;;;30.00;69.20;;;;;;6227667;28;20242;-68
2022/06/26 10:31:09;;;;;;;2.53;2.30;;;30.00;70.20;;;;;;6225268;28;20222;-66
2022/06/26 10:34:16;;;;;;;2.60;2.40;;;30.10;70.30;;;;;;6222766;28;20232;-66
2022/06/26 10:37:21;;;;;;;2.60;2.40;;;30.10;69.90;;;;;;6252489;28;20220;-64
2022/06/26 10:43:51;;;;;;;2.87;2.67;;;30.10;69.90;;;;;;6222372;28;20240;-64
2022/06/26 10:46:58;;;;;;;2.50;2.30;;;30.00;70.20;;;;;;6233669;28;20239;-63
2022/06/26 10:50:01;;;;;;;2.53;2.33;;;30.10;70.10;;;;;;6232181;28;20228;-63
2022/06/26 10:53:20;;;;;;;3.10;2.80;;;30.10;70.00;;;;;;6246462;28;20298;-63
2022/06/26 10:56:23;;;;;;;2.20;2.10;;;30.20;69.90;;;;;;6233872;28;20228;-62
2022/06/26 10:59:31;;;;;;;2.43;2.23;;;30.40;69.90;;;;;;6240860;28;20254;-62
2022/06/26 11:02:38;;;;;;;2.90;2.03;;;30.50;68.30;;;;;;6221966;28;20240;-62
2022/06/26 11:05:51;;;;;;;2.43;2.23;;;30.70;67.70;;;;;;6227150;28;20232;-63
2022/06/26 11:08:56;;;;;;;2.50;2.30;;;30.80;66.70;;;;;;6252395;28;20682;-64
2022/06/26 11:11:59;;;;;;;2.40;2.20;;;30.80;66.80;;;;;;6251936;28;20223;-64
2022/06/26 11:15:02;;;;;;;3.17;2.88;;;30.70;67.40;;;;;;6252488;28;20204;-66
2022/06/26 11:18:07;;;;;;;4.28;2.53;;;30.70;67.30;;;;;;6251803;28;20204;-68
2022/06/26 11:21:11;;;;;;;2.60;2.40;;;30.40;67.10;;;;;;6252767;28;20231;-68
2022/06/26 11:24:16;;;;;;;3.65;2.45;;;30.40;67.60;;;;;;6251043;28;20235;-67
2022/06/26 11:27:27;;;;;;;3.88;2.88;;;30.60;67.80;;;;;;6251544;28;20274;-67
2022/06/26 11:30:31;;;;;;;3.20;2.60;;;30.70;67.90;;;;;;6242825;28;20228;-66
2022/06/26 11:33:35;;;;;;;4.72;2.67;;;30.80;68.10;;;;;;6234540;28;20229;-65
2022/06/26 11:36:50;;;;;;;2.37;2.27;;;30.40;67.50;;;;;;6226919;28;20220;-64
2022/06/26 11:40:12;;;;;;;2.13;1.92;;;30.60;66.60;;;;;;6226588;28;20693;-65
2022/06/26 11:43:15;;;;;;;2.67;2.47;;;30.60;66.50;;;;;;6225731;28;20232;-64
2022/06/26 11:46:19;;;;;;;2.53;2.33;;;30.80;65.50;;;;;;6226544;28;20233;-65
2022/06/26 11:49:25;;;;;;;2.60;2.40;;;31.00;65.10;;;;;;6226256;28;20224;-65
2022/06/26 11:52:28;;;;;;;2.65;2.28;;;31.00;65.90;;;;;;6225868;28;20360;-65
2022/06/26 11:55:33;;;;;;;3.50;3.03;;;31.10;66.10;;;;;;6226036;28;20224;-66
2022/06/26 11:58:36;;;;;;;4.35;2.90;;;31.20;65.70;;;;;;6218798;28;20233;-65
2022/06/26 12:01:40;;;;;;;2.72;2.53;;;31.40;64.90;;;;;;6251339;28;20238;-64
2022/06/26 12:04:43;;;;;;;2.53;2.35;;;31.40;64.80;;;;;;6249118;28;20231;-64
2022/06/26 12:07:48;;;;;;;3.15;2.03;;;31.10;65.20;;;;;;6250125;28;20228;-63
2022/06/26 12:10:53;;;;;;;2.33;2.13;;;30.70;65.10;;;;;;6251030;28;20234;-65
2022/06/26 12:13:57;;;;;;;3.00;2.80;;;30.40;65.60;;;;;;6249908;28;20227;-62
2022/06/26 12:17:05;;;;;;;2.60;2.40;;;30.40;65.80;;;;;;6251472;28;20231;-64
2022/06/26 12:20:10;;;;;;;2.80;2.60;;;30.50;65.90;;;;;;6250620;28;20232;-64
2022/06/26 12:23:13;;;;;;;3.75;2.30;;;30.80;65.90;;;;;;6251878;28;20664;-64
2022/06/26 12:26:19;;;;;;;2.60;2.40;;;31.20;65.70;;;;;;6251535;28;20235;-64
2022/06/26 12:29:24;;;;;;;2.70;2.17;;;31.40;64.00;;;;;;6250434;28;20255;-64
2022/06/26 12:32:27;;;;;;;2.67;2.47;;;31.50;62.90;;;;;;6242627;28;20239;-64
2022/06/26 12:35:32;;;;;;;3.13;2.83;;;31.70;62.80;;;;;;6202836;28;20233;-63
2022/06/26 12:38:37;;;;;;;2.92;2.72;;;31.80;62.90;;;;;;6228818;28;20229;-63
2022/06/26 12:41:41;;;;;;;2.75;2.55;;;31.80;62.40;;;;;;6249497;28;20223;-65
2022/06/26 12:44:44;;;;;;;3.35;2.55;;;31.50;63.50;;;;;;6249116;28;20229;-64
2022/06/26 12:47:48;;;;;;;2.65;2.45;;;31.40;64.20;;;;;;6249521;28;20235;-64
2022/06/26 12:50:52;;;;;;;2.78;2.58;;;31.10;65.00;;;;;;6224793;28;20558;-64
2022/06/26 12:53:55;;;;;;;2.40;2.20;;;31.10;65.20;;;;;;6228565;28;20228;-66
2022/06/26 12:56:59;;;;;;;4.10;2.40;;;31.30;64.10;;;;;;6229916;28;20211;-64
2022/06/26 13:00:04;;;;;;;2.58;2.38;;;31.30;64.10;;;;;;6225621;28;20524;-64
2022/06/26 13:03:07;;;;;;;2.45;2.33;;;31.40;64.00;;;;;;6230598;28;20240;-64
2022/06/26 13:06:11;;;;;;;2.80;2.60;;;31.60;64.70;;;;;;6229202;28;20235;-64
2022/06/26 13:09:14;;;;;;;3.17;2.75;;;31.60;64.10;;;;;;6230053;28;20273;-63
2022/06/26 13:12:18;;;;;;;3.55;3.28;;;31.50;65.10;;;;;;6228655;28;20254;-65
2022/06/26 13:15:22;;;;;;;3.58;3.10;;;31.50;64.60;;;;;;6229325;28;20224;-64
2022/06/26 13:18:25;;;;;;;3.70;2.53;;;31.20;64.90;;;;;;6230452;28;20228;-66
2022/06/26 13:21:28;;;;;;;3.22;3.03;;;31.10;64.80;;;;;;6229409;28;20574;-66
2022/06/26 13:24:31;;;;;;;3.20;2.90;;;30.90;64.90;;;;;;6229465;28;20563;-66
2022/06/26 13:27:36;;;;;;;2.42;2.22;;;30.80;65.10;;;;;;6211705;28;20244;-66
2022/06/26 13:30:39;;;;;;;3.08;2.78;;;30.70;65.40;;;;;;6212530;28;20750;-66
2022/06/26 13:33:43;;;;;;;4.25;2.80;;;30.60;64.20;;;;;;6227264;28;20319;-66
2022/06/26 13:36:46;;;;;;;2.70;2.50;;;30.50;64.00;;;;;;6226414;28;20228;-68
2022/06/26 13:39:49;;;;;;;3.30;2.53;;;30.60;65.00;;;;;;6228079;28;20688;-65
2022/06/26 13:42:54;;;;;;;5.00;2.90;;;30.70;65.00;;;;;;6228513;28;20232;-64
2022/06/26 13:45:57;;;;;;;3.03;2.75;;;30.80;64.70;;;;;;6228416;28;20235;-64
2022/06/26 13:49:00;;;;;;;2.53;2.33;;;30.90;64.50;;;;;;6229410;28;20244;-63
2022/06/26 13:52:03;;;;;;;2.80;2.60;;;30.90;64.00;;;;;;6229234;28;20255;-62
2022/06/26 13:55:09;;;;;;;2.90;2.70;;;30.90;63.90;;;;;;6229126;28;20228;-63
2022/06/26 13:58:14;;;;;;;3.28;2.97;;;30.80;64.40;;;;;;6228573;28;20689;-63
2022/06/26 14:01:17;;;;;;;3.58;2.50;;;30.80;64.70;;;;;;6227943;28;20255;-62
2022/06/26 14:04:21;;;;;;;4.65;2.70;;;30.80;64.50;;;;;;6235090;28;20228;-63
2022/06/26 14:07:24;;;;;;;3.60;2.53;;;30.60;64.70;;;;;;6252720;28;20739;-64
2022/06/26 14:10:27;;;;;;;3.80;2.38;;;30.40;65.80;;;;;;6252981;28;20227;-63
2022/06/26 14:13:32;;;;;;;2.60;2.40;;;30.50;64.80;;;;;;6252463;28;20541;-64
2022/06/26 14:16:35;;;;;;;3.27;2.87;;;30.50;64.70;;;;;;6253088;28;20326;-65
2022/06/26 14:19:38;;;;;;;3.20;2.47;;;30.60;64.00;;;;;;6252392;28;20235;-65
2022/06/26 14:26:03;;;;;;;2.90;2.57;;;30.60;63.40;;;;;;6252612;28;20235;-64
2022/06/26 14:29:08;;;;;;;3.42;2.50;;;30.60;64.10;;;;;;6252734;28;20621;-65
2022/06/26 14:32:11;;;;;;;4.50;2.73;;;30.60;64.00;;;;;;6232491;28;20556;-64
2022/06/26 14:35:14;;;;;;;2.97;2.75;;;30.80;63.90;;;;;;6228179;28;20239;-65
2022/06/26 14:38:18;;;;;;;3.10;2.78;;;30.90;63.50;;;;;;6228276;28;20248;-65
2022/06/26 14:41:22;;;;;;;3.03;2.65;;;31.00;63.30;;;;;;6227912;28;20235;-66
2022/06/26 14:44:26;;;;;;;3.22;2.78;;;30.80;62.70;;;;;;6228080;28;20235;-66
2022/06/26 14:47:29;;;;;;;3.20;2.57;;;30.50;63.10;;;;;;6228028;28;20229;-65
2022/06/26 14:50:33;;;;;;;2.50;2.30;;;30.50;64.10;;;;;;6228563;28;20233;-68
2022/06/26 14:53:37;;;;;;;3.15;2.63;;;30.50;63.20;;;;;;6228369;28;20235;-68
2022/06/26 14:56:40;;;;;;;2.83;2.53;;;30.70;63.50;;;;;;6231476;28;20250;-67
2022/06/26 14:59:44;;;;;;;2.55;2.35;;;30.80;62.90;;;;;;6217394;28;20221;-67
2022/06/26 15:02:53;;;;;;;2.60;2.38;;;30.80;63.20;;;;;;6228026;28;20268;-67
2022/06/26 15:05:56;;;;;;;2.55;2.35;;;31.00;62.20;;;;;;6233096;28;20200;-67
2022/06/26 15:08:59;;;;;;;3.63;2.58;;;31.10;63.00;;;;;;6235096;28;20648;-67
2022/06/26 15:12:04;;;;;;;2.78;2.58;;;31.10;62.40;;;;;;6231116;28;20222;-68
2022/06/26 15:15:11;;;;;;;2.63;2.42;;;30.90;63.50;;;;;;6233142;28;20270;-67
2022/06/26 15:18:14;;;;;;;2.70;2.50;;;31.00;62.00;;;;;;6226476;28;20708;-65
2022/06/26 15:21:17;;;;;;;3.72;2.97;;;31.00;63.40;;;;;;6246010;28;20234;-66
2022/06/26 15:24:20;;;;;;;2.63;2.25;;;30.60;64.20;;;;;;6251576;28;20253;-66
2022/06/26 15:27:23;;;;;;;3.63;2.55;;;30.60;64.90;;;;;;6251128;28;20706;-66
2022/06/26 15:30:29;;;;;;;2.70;2.50;;;30.70;64.00;;;;;;6251311;28;20232;-68
2022/06/26 15:33:33;;;;;;;3.70;3.13;;;30.80;63.80;;;;;;6250782;28;20294;-65
2022/06/26 15:36:36;;;;;;;3.00;2.70;;;31.00;63.30;;;;;;6251236;28;20228;-65
2022/06/26 15:39:39;;;;;;;2.78;2.58;;;30.90;62.90;;;;;;6250700;28;20711;-64
2022/06/26 15:42:48;;;;;;;2.65;2.45;;;31.00;63.20;;;;;;6250729;28;20228;-65
2022/06/26 15:45:53;;;;;;;3.15;2.85;;;30.90;63.70;;;;;;6250811;28;20232;-67
2022/06/26 15:48:56;;;;;;;3.20;2.83;;;30.90;64.90;;;;;;6246812;28;20224;-66
2022/06/26 15:51:59;;;;;;;3.30;2.53;;;31.10;64.90;;;;;;6225960;28;20243;-65
2022/06/26 15:55:03;;;;;;;2.53;2.33;;;31.10;64.10;;;;;;6226089;28;20243;-65
2022/06/26 15:58:06;;;;;;;3.58;3.05;;;31.10;63.60;;;;;;6225796;28;20661;-65
2022/06/26 16:01:11;;;;;;;2.95;2.75;;;31.20;63.20;;;;;;6250363;28;20709;-66
2022/06/26 16:04:14;;;;;;;2.95;2.75;;;31.20;63.10;;;;;;6251149;28;20720;-65
2022/06/26 16:07:17;;;;;;;2.72;2.53;;;31.40;63.40;;;;;;6246964;28;20255;-67
2022/06/26 16:10:20;;;;;;;2.95;2.75;;;31.10;63.50;;;;;;6233713;28;20228;-65
2022/06/26 16:13:23;;;;;;;4.63;3.08;;;31.00;63.80;;;;;;6232223;28;20225;-65
2022/06/26 16:16:35;;;;;;;2.72;2.40;;;30.90;63.50;;;;;;6231727;28;20762;-65
2022/06/26 16:19:40;;;;;;;3.10;2.90;;;30.90;64.10;;;;;;6229390;28;20304;-65
2022/06/26 16:26:20;;;;;;;5.45;2.92;;;31.10;62.80;;;;;;6242034;28;20216;-65
2022/06/26 16:29:23;;;;;;;3.28;3.08;;;31.10;63.50;;;;;;6242575;28;20321;-65